Portada
METAR-TAF:

METAR-TAF

Aeroports :

Rodés, França

latitud: 44-24N, longitud: 002-29E, altitud: 581 m

METAR: manca

Hora: 19:19 (17:19 UTC)

Pronòstic

L'informe es va fer fa 6 hores i 19 minuts, a les 11:00 UTC
Pronòstic vàlid del 18 a les 12 UTC al 19 a les 12 UTC
Vent 10 kt del Nord-Oest
Visibilitat 10 km o més
Cel ennuvolat a una alçada de 2500 ft
Evolucionant progressivament
l' 18 a les 20 UTC al 18 a les 23 UTC
Visibilitat 10 km o més
sense núvols per sota de 1500 mi sense presència de cumulonimbus.
Probabilitat 30% :
Temporalment
l' 19 a les 02 UTC al 19 a les 05 UTC
Visibilitat: 4000 m
boirina

TAF: LFCR 181100Z 1812/1912 32010KT 9999 BKN025 BECMG 1820/1823 CAVOK PROB30 TEMPO 1902/1905 4000 BR

Observacions i pronòstics meteorològics de més de 4000 aeroports (METAR i TAF).

Les estacions disponibles són els punts grocs i vermells al mapa.

Posi el ratolí al punt desitjat per veure el nom de l'estació.

Feu clic per veure les observacions i els pronòstics meteorològics.

Per canviar el mapa: feu clic els botons verds amb una creu de color negre per apropar; al botó verd amb un guió per allunyar la imatge; o en les fletxes verdes per a mapes adjacents.


METAR-TAF: